KBMT/BMT METAR and TAF weather

Enter ICAO airport designator
Station Type Date Time Source
KBMT METAR 2021/03/02 16:55 UTC NOAA

KBMT 021655Z AUTO 03014KT 10SM OVC011 11/08 A3023 RMK AO2 T01100081


Station Type Date Time Source
KBMT Decoded METAR 2021/03/02 16:55 UTC NOAA

Station name not available
Mar 02, 2021 - 11:55 AM EST / 2021.03.02 1655 UTC
Wind: from the NNE (030 degrees) at 16 MPH (14 KT):0
Visibility: 10 mile(s):0
Sky conditions: overcast
Temperature: 51.8 F (11.0 C)
Dew Point: 46.6 F (8.1 C)
Relative Humidity: 82%
Pressure (altimeter): 30.23 in. Hg (1023 hPa)
ob: KBMT 021655Z AUTO 03014KT 10SM OVC011 11/08 A3023 RMK AO2 T01100081
cycle: 17

Station Type Date Time Source
KBMT TAF UTC NOAA

Error!

Example: see airport list